sensor_id;sensor_type;location;lat;lon;timestamp;temperature;humidity
17172;DHT22;8701;50.150;8.756;2024-03-02T00:03:24;7.10;99.90
17172;DHT22;8701;50.150;8.756;2024-03-02T00:07:27;7.10;99.90
17172;DHT22;8701;50.150;8.756;2024-03-02T00:11:34;7.10;99.90
17172;DHT22;8701;50.150;8.756;2024-03-02T00:15:41;7.10;99.90
17172;DHT22;8701;50.150;8.756;2024-03-02T00:19:44;7.10;99.90
17172;DHT22;8701;50.150;8.756;2024-03-02T00:23:48;7.00;99.90
17172;DHT22;8701;50.150;8.756;2024-03-02T00:27:52;7.00;99.90
17172;DHT22;8701;50.150;8.756;2024-03-02T00:31:54;7.00;99.90
17172;DHT22;8701;50.150;8.756;2024-03-02T00:35:57;7.00;99.90
17172;DHT22;8701;50.150;8.756;2024-03-02T00:40:00;7.00;99.90
17172;DHT22;8701;50.150;8.756;2024-03-02T00:44:07;7.00;99.90
17172;DHT22;8701;50.150;8.756;2024-03-02T00:48:15;6.90;99.90
17172;DHT22;8701;50.150;8.756;2024-03-02T00:52:17;6.90;99.90
17172;DHT22;8701;50.150;8.756;2024-03-02T00:56:19;6.90;99.90
17172;DHT22;8701;50.150;8.756;2024-03-02T01:00:23;6.90;99.90
17172;DHT22;8701;50.150;8.756;2024-03-02T01:04:25;6.90;99.90
17172;DHT22;8701;50.150;8.756;2024-03-02T01:08:27;6.90;99.90
17172;DHT22;8701;50.150;8.756;2024-03-02T01:12:30;6.80;99.90
17172;DHT22;8701;50.150;8.756;2024-03-02T01:16:33;6.80;99.90
17172;DHT22;8701;50.150;8.756;2024-03-02T01:20:35;6.80;99.90
17172;DHT22;8701;50.150;8.756;2024-03-02T01:24:38;6.80;99.90
17172;DHT22;8701;50.150;8.756;2024-03-02T01:28:41;6.80;99.90
17172;DHT22;8701;50.150;8.756;2024-03-02T01:32:45;6.70;99.90
17172;DHT22;8701;50.150;8.756;2024-03-02T01:36:47;6.70;99.90
17172;DHT22;8701;50.150;8.756;2024-03-02T01:40:50;6.60;99.90
17172;DHT22;8701;50.150;8.756;2024-03-02T01:44:52;6.80;99.90
17172;DHT22;8701;50.150;8.756;2024-03-02T01:48:56;6.50;99.90
17172;DHT22;8701;50.150;8.756;2024-03-02T01:52:59;6.50;99.90
17172;DHT22;8701;50.150;8.756;2024-03-02T01:57:01;6.50;99.90
17172;DHT22;8701;50.150;8.756;2024-03-02T02:01:04;6.50;99.90
17172;DHT22;8701;50.150;8.756;2024-03-02T02:05:08;6.50;99.90
17172;DHT22;8701;50.150;8.756;2024-03-02T02:09:11;6.40;99.90
17172;DHT22;8701;50.150;8.756;2024-03-02T02:13:13;6.40;99.90
17172;DHT22;8701;50.150;8.756;2024-03-02T02:17:16;6.30;99.90
17172;DHT22;8701;50.150;8.756;2024-03-02T02:21:24;6.20;99.90
17172;DHT22;8701;50.150;8.756;2024-03-02T02:25:26;6.20;99.90
17172;DHT22;8701;50.150;8.756;2024-03-02T02:29:29;6.10;99.90
17172;DHT22;8701;50.150;8.756;2024-03-02T02:33:31;6.10;99.90
17172;DHT22;8701;50.150;8.756;2024-03-02T02:37:34;6.10;99.90
17172;DHT22;8701;50.150;8.756;2024-03-02T02:41:37;6.00;99.90
17172;DHT22;8701;50.150;8.756;2024-03-02T02:45:39;6.00;99.90
17172;DHT22;8701;50.150;8.756;2024-03-02T02:49:41;6.00;99.90
17172;DHT22;8701;50.150;8.756;2024-03-02T02:53:45;5.90;99.90
17172;DHT22;8701;50.150;8.756;2024-03-02T02:57:47;5.90;99.90
17172;DHT22;8701;50.150;8.756;2024-03-02T03:01:51;5.90;99.90
17172;DHT22;8701;50.150;8.756;2024-03-02T03:05:54;5.90;99.90
17172;DHT22;8701;50.150;8.756;2024-03-02T03:09:58;5.90;99.90
17172;DHT22;8701;50.150;8.756;2024-03-02T03:14:00;5.90;99.90
17172;DHT22;8701;50.150;8.756;2024-03-02T03:18:03;6.20;99.90
17172;DHT22;8701;50.150;8.756;2024-03-02T03:22:05;5.90;99.90
17172;DHT22;8701;50.150;8.756;2024-03-02T03:26:09;5.80;99.90
17172;DHT22;8701;50.150;8.756;2024-03-02T03:30:12;5.70;99.90
17172;DHT22;8701;50.150;8.756;2024-03-02T03:34:14;5.70;99.90
17172;DHT22;8701;50.150;8.756;2024-03-02T03:38:17;5.70;99.90
17172;DHT22;8701;50.150;8.756;2024-03-02T03:42:20;5.70;99.90
17172;DHT22;8701;50.150;8.756;2024-03-02T03:46:23;5.70;99.90
17172;DHT22;8701;50.150;8.756;2024-03-02T03:50:25;5.70;99.90
17172;DHT22;8701;50.150;8.756;2024-03-02T03:54:27;5.60;99.90
17172;DHT22;8701;50.150;8.756;2024-03-02T03:58:31;5.60;99.90
17172;DHT22;8701;50.150;8.756;2024-03-02T04:02:33;5.60;99.90
17172;DHT22;8701;50.150;8.756;2024-03-02T04:06:36;5.40;99.90
17172;DHT22;8701;50.150;8.756;2024-03-02T04:10:39;5.50;99.90
17172;DHT22;8701;50.150;8.756;2024-03-02T04:14:44;5.50;99.90
17172;DHT22;8701;50.150;8.756;2024-03-02T04:18:46;5.60;99.90
17172;DHT22;8701;50.150;8.756;2024-03-02T04:22:48;5.60;99.90
17172;DHT22;8701;50.150;8.756;2024-03-02T04:26:51;5.50;99.90
17172;DHT22;8701;50.150;8.756;2024-03-02T04:30:54;5.50;99.90
17172;DHT22;8701;50.150;8.756;2024-03-02T04:34:57;5.50;99.90
17172;DHT22;8701;50.150;8.756;2024-03-02T04:38:59;5.50;99.90
17172;DHT22;8701;50.150;8.756;2024-03-02T04:43:01;5.60;99.90
17172;DHT22;8701;50.150;8.756;2024-03-02T04:47:06;5.60;99.90
17172;DHT22;8701;50.150;8.756;2024-03-02T04:51:08;5.60;99.90
17172;DHT22;8701;50.150;8.756;2024-03-02T04:55:10;5.50;99.90
17172;DHT22;8701;50.150;8.756;2024-03-02T04:59:30;5.50;99.90
17172;DHT22;8701;50.150;8.756;2024-03-02T05:03:34;5.60;99.90
17172;DHT22;8701;50.150;8.756;2024-03-02T05:07:36;5.60;99.90
17172;DHT22;8701;50.150;8.756;2024-03-02T05:11:38;6.00;99.90
17172;DHT22;8701;50.150;8.756;2024-03-02T05:15:57;5.70;99.90
17172;DHT22;8701;50.150;8.756;2024-03-02T05:20:00;5.70;99.90
17172;DHT22;8701;50.150;8.756;2024-03-02T05:24:03;5.70;99.90
17172;DHT22;8701;50.150;8.756;2024-03-02T05:28:06;5.70;99.90
17172;DHT22;8701;50.150;8.756;2024-03-02T05:32:08;5.70;99.90
17172;DHT22;8701;50.150;8.756;2024-03-02T05:36:12;5.60;99.90
17172;DHT22;8701;50.150;8.756;2024-03-02T05:40:14;5.60;99.90
17172;DHT22;8701;50.150;8.756;2024-03-02T05:44:17;5.60;99.90
17172;DHT22;8701;50.150;8.756;2024-03-02T05:48:20;5.60;99.90
17172;DHT22;8701;50.150;8.756;2024-03-02T05:52:24;5.60;99.90
17172;DHT22;8701;50.150;8.756;2024-03-02T05:56:26;5.60;99.90
17172;DHT22;8701;50.150;8.756;2024-03-02T06:00:28;5.60;99.90
17172;DHT22;8701;50.150;8.756;2024-03-02T06:04:32;5.70;99.90
17172;DHT22;8701;50.150;8.756;2024-03-02T06:08:36;5.70;99.90
17172;DHT22;8701;50.150;8.756;2024-03-02T06:12:38;5.70;99.90
17172;DHT22;8701;50.150;8.756;2024-03-02T06:16:40;5.70;99.90
17172;DHT22;8701;50.150;8.756;2024-03-02T06:20:42;5.80;99.90
17172;DHT22;8701;50.150;8.756;2024-03-02T06:24:46;5.90;99.90
17172;DHT22;8701;50.150;8.756;2024-03-02T06:28:48;6.00;99.90
17172;DHT22;8701;50.150;8.756;2024-03-02T06:32:51;6.00;99.90
17172;DHT22;8701;50.150;8.756;2024-03-02T06:36:54;6.00;99.90
17172;DHT22;8701;50.150;8.756;2024-03-02T06:40:58;6.10;99.90
17172;DHT22;8701;50.150;8.756;2024-03-02T06:45:00;6.10;99.90
17172;DHT22;8701;50.150;8.756;2024-03-02T06:49:02;6.10;99.90
17172;DHT22;8701;50.150;8.756;2024-03-02T06:53:05;6.20;99.90
17172;DHT22;8701;50.150;8.756;2024-03-02T06:57:09;6.20;99.90
17172;DHT22;8701;50.150;8.756;2024-03-02T07:01:12;6.30;99.90
17172;DHT22;8701;50.150;8.756;2024-03-02T07:05:15;6.30;99.90
17172;DHT22;8701;50.150;8.756;2024-03-02T07:09:17;6.30;99.90
17172;DHT22;8701;50.150;8.756;2024-03-02T07:13:24;6.40;99.90
17172;DHT22;8701;50.150;8.756;2024-03-02T07:17:27;6.50;99.90
17172;DHT22;8701;50.150;8.756;2024-03-02T07:21:29;6.60;99.90
17172;DHT22;8701;50.150;8.756;2024-03-02T07:25:31;6.70;99.90
17172;DHT22;8701;50.150;8.756;2024-03-02T07:29:35;6.80;99.90
17172;DHT22;8701;50.150;8.756;2024-03-02T07:33:38;6.80;99.90
17172;DHT22;8701;50.150;8.756;2024-03-02T07:37:41;6.80;99.90
17172;DHT22;8701;50.150;8.756;2024-03-02T07:41:45;6.90;99.90
17172;DHT22;8701;50.150;8.756;2024-03-02T07:45:49;6.90;99.90
17172;DHT22;8701;50.150;8.756;2024-03-02T07:49:51;7.00;99.90
17172;DHT22;8701;50.150;8.756;2024-03-02T07:53:54;7.00;99.90
17172;DHT22;8701;50.150;8.756;2024-03-02T07:57:56;7.00;99.90
17172;DHT22;8701;50.150;8.756;2024-03-02T08:02:00;6.90;99.90
17172;DHT22;8701;50.150;8.756;2024-03-02T08:06:02;7.10;99.90
17172;DHT22;8701;50.150;8.756;2024-03-02T08:10:06;7.20;99.90
17172;DHT22;8701;50.150;8.756;2024-03-02T08:14:08;7.60;99.90
17172;DHT22;8701;50.150;8.756;2024-03-02T08:18:12;8.40;99.90
17172;DHT22;8701;50.150;8.756;2024-03-02T08:22:14;9.20;99.90
17172;DHT22;8701;50.150;8.756;2024-03-02T08:26:16;10.10;99.90
17172;DHT22;8701;50.150;8.756;2024-03-02T08:30:18;11.00;99.90
17172;DHT22;8701;50.150;8.756;2024-03-02T08:34:22;11.80;99.90
17172;DHT22;8701;50.150;8.756;2024-03-02T08:38:26;12.60;99.90
17172;DHT22;8701;50.150;8.756;2024-03-02T08:42:28;12.40;99.90
17172;DHT22;8701;50.150;8.756;2024-03-02T08:46:30;12.10;99.90
17172;DHT22;8701;50.150;8.756;2024-03-02T08:50:34;11.70;99.90
17172;DHT22;8701;50.150;8.756;2024-03-02T08:54:36;11.20;99.90
17172;DHT22;8701;50.150;8.756;2024-03-02T08:58:38;10.90;99.90
17172;DHT22;8701;50.150;8.756;2024-03-02T09:02:41;10.60;99.90
17172;DHT22;8701;50.150;8.756;2024-03-02T09:06:44;10.50;99.90
17172;DHT22;8701;50.150;8.756;2024-03-02T09:10:46;10.60;99.90
17172;DHT22;8701;50.150;8.756;2024-03-02T09:14:48;10.50;99.90
17172;DHT22;8701;50.150;8.756;2024-03-02T09:18:51;10.50;99.90
17172;DHT22;8701;50.150;8.756;2024-03-02T09:22:54;10.70;99.90
17172;DHT22;8701;50.150;8.756;2024-03-02T09:26:56;10.90;99.90
17172;DHT22;8701;50.150;8.756;2024-03-02T09:31:00;10.90;99.90
17172;DHT22;8701;50.150;8.756;2024-03-02T09:35:04;11.00;99.90
17172;DHT22;8701;50.150;8.756;2024-03-02T09:39:09;11.20;99.90
17172;DHT22;8701;50.150;8.756;2024-03-02T09:43:11;11.50;99.90
17172;DHT22;8701;50.150;8.756;2024-03-02T09:47:14;11.60;99.90
17172;DHT22;8701;50.150;8.756;2024-03-02T09:51:17;11.90;99.90
17172;DHT22;8701;50.150;8.756;2024-03-02T09:55:21;12.00;99.90
17172;DHT22;8701;50.150;8.756;2024-03-02T09:59:24;12.00;99.90
17172;DHT22;8701;50.150;8.756;2024-03-02T10:03:26;12.10;99.90
17172;DHT22;8701;50.150;8.756;2024-03-02T10:07:30;12.30;99.90
17172;DHT22;8701;50.150;8.756;2024-03-02T10:11:35;12.60;99.90
17172;DHT22;8701;50.150;8.756;2024-03-02T10:15:40;12.80;99.90
17172;DHT22;8701;50.150;8.756;2024-03-02T10:19:43;13.10;99.90
17172;DHT22;8701;50.150;8.756;2024-03-02T10:23:45;13.50;99.90
17172;DHT22;8701;50.150;8.756;2024-03-02T10:27:50;13.80;99.90
17172;DHT22;8701;50.150;8.756;2024-03-02T10:31:52;14.00;99.90
17172;DHT22;8701;50.150;8.756;2024-03-02T10:35:54;14.20;99.90
17172;DHT22;8701;50.150;8.756;2024-03-02T10:39:57;14.40;99.90
17172;DHT22;8701;50.150;8.756;2024-03-02T10:44:01;14.70;99.90
17172;DHT22;8701;50.150;8.756;2024-03-02T10:48:05;15.00;99.90
17172;DHT22;8701;50.150;8.756;2024-03-02T10:52:08;15.20;99.90
17172;DHT22;8701;50.150;8.756;2024-03-02T10:56:14;15.60;99.90
17172;DHT22;8701;50.150;8.756;2024-03-02T11:00:20;16.20;99.90
17172;DHT22;8701;50.150;8.756;2024-03-02T11:04:28;16.70;99.90
17172;DHT22;8701;50.150;8.756;2024-03-02T11:08:30;17.10;99.90
17172;DHT22;8701;50.150;8.756;2024-03-02T11:12:36;17.50;99.90
17172;DHT22;8701;50.150;8.756;2024-03-02T11:16:42;18.00;99.90
17172;DHT22;8701;50.150;8.756;2024-03-02T11:20:46;18.00;99.90
17172;DHT22;8701;50.150;8.756;2024-03-02T11:24:49;18.50;99.90
17172;DHT22;8701;50.150;8.756;2024-03-02T11:28:52;19.50;99.90
17172;DHT22;8701;50.150;8.756;2024-03-02T11:32:56;20.30;99.90
17172;DHT22;8701;50.150;8.756;2024-03-02T11:36:59;20.90;99.90
17172;DHT22;8701;50.150;8.756;2024-03-02T11:41:06;21.30;99.90
17172;DHT22;8701;50.150;8.756;2024-03-02T11:45:09;22.00;99.90
17172;DHT22;8701;50.150;8.756;2024-03-02T11:49:15;22.60;99.90
17172;DHT22;8701;50.150;8.756;2024-03-02T11:53:22;23.00;99.90
17172;DHT22;8701;50.150;8.756;2024-03-02T11:57:24;22.20;98.60
17172;DHT22;8701;50.150;8.756;2024-03-02T12:01:29;21.00;98.20
17172;DHT22;8701;50.150;8.756;2024-03-02T12:05:33;20.30;99.90
17172;DHT22;8701;50.150;8.756;2024-03-02T12:09:36;19.90;99.40
17172;DHT22;8701;50.150;8.756;2024-03-02T12:13:38;19.50;98.80
17172;DHT22;8701;50.150;8.756;2024-03-02T12:17:40;19.90;99.60
17172;DHT22;8701;50.150;8.756;2024-03-02T12:21:44;21.20;99.80
17172;DHT22;8701;50.150;8.756;2024-03-02T12:25:46;22.30;98.10
17172;DHT22;8701;50.150;8.756;2024-03-02T12:29:49;23.00;96.50
17172;DHT22;8701;50.150;8.756;2024-03-02T12:33:51;23.50;95.00
17172;DHT22;8701;50.150;8.756;2024-03-02T12:37:55;23.90;94.70
17172;DHT22;8701;50.150;8.756;2024-03-02T12:41:57;24.40;93.70
17172;DHT22;8701;50.150;8.756;2024-03-02T12:45:59;25.10;92.20
17172;DHT22;8701;50.150;8.756;2024-03-02T12:50:03;25.10;92.10
17172;DHT22;8701;50.150;8.756;2024-03-02T12:54:07;25.40;91.20
17172;DHT22;8701;50.150;8.756;2024-03-02T12:58:16;25.80;91.10
17172;DHT22;8701;50.150;8.756;2024-03-02T13:02:19;26.30;90.40
17172;DHT22;8701;50.150;8.756;2024-03-02T13:06:21;26.10;90.30
17172;DHT22;8701;50.150;8.756;2024-03-02T13:10:25;26.30;87.60
17172;DHT22;8701;50.150;8.756;2024-03-02T13:14:27;26.60;88.60
17172;DHT22;8701;50.150;8.756;2024-03-02T13:18:29;27.00;85.40
17172;DHT22;8701;50.150;8.756;2024-03-02T13:22:32;27.10;85.40
17172;DHT22;8701;50.150;8.756;2024-03-02T13:26:35;27.50;82.40
17172;DHT22;8701;50.150;8.756;2024-03-02T13:30:38;27.90;84.40
17172;DHT22;8701;50.150;8.756;2024-03-02T13:34:40;27.80;82.50
17172;DHT22;8701;50.150;8.756;2024-03-02T13:38:42;28.00;78.70
17172;DHT22;8701;50.150;8.756;2024-03-02T13:42:46;27.90;75.20
17172;DHT22;8701;50.150;8.756;2024-03-02T13:46:49;27.90;75.20
17172;DHT22;8701;50.150;8.756;2024-03-02T13:50:52;28.10;76.40
17172;DHT22;8701;50.150;8.756;2024-03-02T13:54:55;28.10;73.60
17172;DHT22;8701;50.150;8.756;2024-03-02T13:58:58;28.20;74.60
17172;DHT22;8701;50.150;8.756;2024-03-02T14:03:00;28.20;75.60
17172;DHT22;8701;50.150;8.756;2024-03-02T14:07:05;26.90;76.50
17172;DHT22;8701;50.150;8.756;2024-03-02T14:11:07;25.30;78.50
17172;DHT22;8701;50.150;8.756;2024-03-02T14:15:13;23.70;81.90
17172;DHT22;8701;50.150;8.756;2024-03-02T14:19:16;22.60;83.90
17172;DHT22;8701;50.150;8.756;2024-03-02T14:23:18;21.60;86.20
17172;DHT22;8701;50.150;8.756;2024-03-02T14:27:21;20.90;88.50
17172;DHT22;8701;50.150;8.756;2024-03-02T14:31:25;20.90;89.90
17172;DHT22;8701;50.150;8.756;2024-03-02T14:35:27;21.40;90.10
17172;DHT22;8701;50.150;8.756;2024-03-02T14:39:30;21.40;90.10
17172;DHT22;8701;50.150;8.756;2024-03-02T14:43:36;21.00;89.80
17172;DHT22;8701;50.150;8.756;2024-03-02T14:47:40;21.00;90.50
17172;DHT22;8701;50.150;8.756;2024-03-02T14:51:43;20.60;91.10
17172;DHT22;8701;50.150;8.756;2024-03-02T14:55:46;20.70;90.40
17172;DHT22;8701;50.150;8.756;2024-03-02T14:59:48;21.10;90.90
17172;DHT22;8701;50.150;8.756;2024-03-02T15:03:52;21.40;90.60
17172;DHT22;8701;50.150;8.756;2024-03-02T15:07:54;21.30;86.00
17172;DHT22;8701;50.150;8.756;2024-03-02T15:11:56;21.20;89.60
17172;DHT22;8701;50.150;8.756;2024-03-02T15:15:59;21.30;88.30
17172;DHT22;8701;50.150;8.756;2024-03-02T15:20:03;21.00;86.40
17172;DHT22;8701;50.150;8.756;2024-03-02T15:24:08;20.20;85.50
17172;DHT22;8701;50.150;8.756;2024-03-02T15:28:10;19.60;86.70
17172;DHT22;8701;50.150;8.756;2024-03-02T15:32:14;19.10;88.90
17172;DHT22;8701;50.150;8.756;2024-03-02T15:36:17;19.30;89.80
17172;DHT22;8701;50.150;8.756;2024-03-02T15:40:20;18.90;90.00
17172;DHT22;8701;50.150;8.756;2024-03-02T15:44:22;18.80;90.00
17172;DHT22;8701;50.150;8.756;2024-03-02T15:48:24;18.50;87.10
17172;DHT22;8701;50.150;8.756;2024-03-02T15:52:28;18.40;90.30
17172;DHT22;8701;50.150;8.756;2024-03-02T15:56:31;18.20;88.80
17172;DHT22;8701;50.150;8.756;2024-03-02T16:00:33;17.90;89.00
17172;DHT22;8701;50.150;8.756;2024-03-02T16:04:36;17.90;89.10
17172;DHT22;8701;50.150;8.756;2024-03-02T16:08:40;17.50;91.20
17172;DHT22;8701;50.150;8.756;2024-03-02T16:12:42;17.40;91.00
17172;DHT22;8701;50.150;8.756;2024-03-02T16:16:44;17.40;90.80
17172;DHT22;8701;50.150;8.756;2024-03-02T16:20:47;17.30;91.70
17172;DHT22;8701;50.150;8.756;2024-03-02T16:24:50;17.20;91.30
17172;DHT22;8701;50.150;8.756;2024-03-02T16:28:53;17.10;92.00
17172;DHT22;8701;50.150;8.756;2024-03-02T16:32:55;16.80;92.50
17172;DHT22;8701;50.150;8.756;2024-03-02T16:36:57;16.70;92.70
17172;DHT22;8701;50.150;8.756;2024-03-02T16:41:01;16.60;93.50
17172;DHT22;8701;50.150;8.756;2024-03-02T16:45:04;16.50;93.40
17172;DHT22;8701;50.150;8.756;2024-03-02T16:49:07;16.30;94.50
17172;DHT22;8701;50.150;8.756;2024-03-02T16:53:10;16.20;94.90
17172;DHT22;8701;50.150;8.756;2024-03-02T16:57:13;16.10;96.00
17172;DHT22;8701;50.150;8.756;2024-03-02T17:01:18;16.00;96.50
17172;DHT22;8701;50.150;8.756;2024-03-02T17:05:20;15.80;96.90
17172;DHT22;8701;50.150;8.756;2024-03-02T17:09:23;15.60;97.60
17172;DHT22;8701;50.150;8.756;2024-03-02T17:13:26;15.40;98.00
17172;DHT22;8701;50.150;8.756;2024-03-02T17:17:28;15.10;98.20
17172;DHT22;8701;50.150;8.756;2024-03-02T17:21:31;14.90;99.20
17172;DHT22;8701;50.150;8.756;2024-03-02T17:25:33;14.70;99.50
17172;DHT22;8701;50.150;8.756;2024-03-02T17:29:37;14.60;99.90
17172;DHT22;8701;50.150;8.756;2024-03-02T17:33:39;14.50;99.90
17172;DHT22;8701;50.150;8.756;2024-03-02T17:37:42;14.30;99.90
17172;DHT22;8701;50.150;8.756;2024-03-02T17:41:47;14.30;99.90
17172;DHT22;8701;50.150;8.756;2024-03-02T17:45:51;14.20;99.90
17172;DHT22;8701;50.150;8.756;2024-03-02T17:49:53;14.10;99.90
17172;DHT22;8701;50.150;8.756;2024-03-02T17:53:55;14.10;99.90
17172;DHT22;8701;50.150;8.756;2024-03-02T17:57:57;14.00;99.90
17172;DHT22;8701;50.150;8.756;2024-03-02T18:02:01;13.90;99.90
17172;DHT22;8701;50.150;8.756;2024-03-02T18:06:04;13.80;99.90
17172;DHT22;8701;50.150;8.756;2024-03-02T18:10:07;13.70;99.90
17172;DHT22;8701;50.150;8.756;2024-03-02T18:14:10;13.70;99.90
17172;DHT22;8701;50.150;8.756;2024-03-02T18:18:14;13.60;99.90
17172;DHT22;8701;50.150;8.756;2024-03-02T18:22:16;13.50;99.90
17172;DHT22;8701;50.150;8.756;2024-03-02T18:26:19;13.40;99.90
17172;DHT22;8701;50.150;8.756;2024-03-02T18:30:21;13.40;99.90
17172;DHT22;8701;50.150;8.756;2024-03-02T18:34:26;13.30;99.90
17172;DHT22;8701;50.150;8.756;2024-03-02T18:38:28;13.20;99.90
17172;DHT22;8701;50.150;8.756;2024-03-02T18:42:30;13.40;99.90
17172;DHT22;8701;50.150;8.756;2024-03-02T18:46:33;13.20;99.90
17172;DHT22;8701;50.150;8.756;2024-03-02T18:50:37;13.20;99.90
17172;DHT22;8701;50.150;8.756;2024-03-02T18:54:40;13.10;99.90
17172;DHT22;8701;50.150;8.756;2024-03-02T18:58:43;13.00;99.90
17172;DHT22;8701;50.150;8.756;2024-03-02T19:02:45;13.00;99.90
17172;DHT22;8701;50.150;8.756;2024-03-02T19:06:48;12.90;99.90
17172;DHT22;8701;50.150;8.756;2024-03-02T19:10:51;12.90;99.90
17172;DHT22;8701;50.150;8.756;2024-03-02T19:14:54;12.90;99.90
17172;DHT22;8701;50.150;8.756;2024-03-02T19:18:56;12.90;99.90
17172;DHT22;8701;50.150;8.756;2024-03-02T19:23:00;12.80;99.90
17172;DHT22;8701;50.150;8.756;2024-03-02T19:27:03;12.70;99.90
17172;DHT22;8701;50.150;8.756;2024-03-02T19:31:05;12.70;99.90
17172;DHT22;8701;50.150;8.756;2024-03-02T19:35:08;12.60;99.90
17172;DHT22;8701;50.150;8.756;2024-03-02T19:39:14;12.60;99.90
17172;DHT22;8701;50.150;8.756;2024-03-02T19:43:18;12.60;99.90
17172;DHT22;8701;50.150;8.756;2024-03-02T19:47:21;12.50;99.90
17172;DHT22;8701;50.150;8.756;2024-03-02T19:51:23;12.50;99.90
17172;DHT22;8701;50.150;8.756;2024-03-02T19:55:27;12.50;99.90
17172;DHT22;8701;50.150;8.756;2024-03-02T19:59:31;12.40;99.90
17172;DHT22;8701;50.150;8.756;2024-03-02T20:03:33;12.40;99.90
17172;DHT22;8701;50.150;8.756;2024-03-02T20:07:36;12.30;99.90
17172;DHT22;8701;50.150;8.756;2024-03-02T20:11:42;12.30;99.90
17172;DHT22;8701;50.150;8.756;2024-03-02T20:15:44;12.30;99.90
17172;DHT22;8701;50.150;8.756;2024-03-02T20:19:47;12.30;99.90
17172;DHT22;8701;50.150;8.756;2024-03-02T20:23:49;12.30;99.90
17172;DHT22;8701;50.150;8.756;2024-03-02T20:27:53;12.30;99.90
17172;DHT22;8701;50.150;8.756;2024-03-02T20:31:55;12.20;99.90
17172;DHT22;8701;50.150;8.756;2024-03-02T20:35:59;12.20;99.90
17172;DHT22;8701;50.150;8.756;2024-03-02T20:40:04;12.10;99.90
17172;DHT22;8701;50.150;8.756;2024-03-02T20:44:09;12.00;99.90
17172;DHT22;8701;50.150;8.756;2024-03-02T20:48:15;11.90;99.90
17172;DHT22;8701;50.150;8.756;2024-03-02T20:52:18;11.80;99.90
17172;DHT22;8701;50.150;8.756;2024-03-02T20:56:21;11.80;99.90
17172;DHT22;8701;50.150;8.756;2024-03-02T21:00:26;11.70;99.90
17172;DHT22;8701;50.150;8.756;2024-03-02T21:04:28;11.60;99.90
17172;DHT22;8701;50.150;8.756;2024-03-02T21:08:31;11.50;99.90
17172;DHT22;8701;50.150;8.756;2024-03-02T21:12:33;11.40;99.90
17172;DHT22;8701;50.150;8.756;2024-03-02T21:16:36;11.30;99.90
17172;DHT22;8701;50.150;8.756;2024-03-02T21:20:41;11.20;99.90
17172;DHT22;8701;50.150;8.756;2024-03-02T21:24:44;11.10;99.90
17172;DHT22;8701;50.150;8.756;2024-03-02T21:28:46;11.00;99.90
17172;DHT22;8701;50.150;8.756;2024-03-02T21:32:52;11.00;99.90
17172;DHT22;8701;50.150;8.756;2024-03-02T21:36:55;10.90;99.90
17172;DHT22;8701;50.150;8.756;2024-03-02T21:40:58;10.80;99.90
17172;DHT22;8701;50.150;8.756;2024-03-02T21:45:01;10.70;99.90
17172;DHT22;8701;50.150;8.756;2024-03-02T21:49:04;10.70;99.90
17172;DHT22;8701;50.150;8.756;2024-03-02T21:53:06;10.70;99.90
17172;DHT22;8701;50.150;8.756;2024-03-02T21:57:09;10.70;99.90
17172;DHT22;8701;50.150;8.756;2024-03-02T22:01:17;10.70;99.90
17172;DHT22;8701;50.150;8.756;2024-03-02T22:05:21;10.70;99.90
17172;DHT22;8701;50.150;8.756;2024-03-02T22:09:24;10.60;99.90
17172;DHT22;8701;50.150;8.756;2024-03-02T22:13:27;10.70;99.90
17172;DHT22;8701;50.150;8.756;2024-03-02T22:17:29;10.60;99.90
17172;DHT22;8701;50.150;8.756;2024-03-02T22:21:32;10.60;99.90
17172;DHT22;8701;50.150;8.756;2024-03-02T22:25:34;10.60;99.90
17172;DHT22;8701;50.150;8.756;2024-03-02T22:29:37;10.60;99.90
17172;DHT22;8701;50.150;8.756;2024-03-02T22:33:41;10.50;99.90
17172;DHT22;8701;50.150;8.756;2024-03-02T22:37:44;10.50;99.90
17172;DHT22;8701;50.150;8.756;2024-03-02T22:41:46;10.40;99.90
17172;DHT22;8701;50.150;8.756;2024-03-02T22:45:51;10.40;99.90
17172;DHT22;8701;50.150;8.756;2024-03-02T22:49:53;10.30;99.90
17172;DHT22;8701;50.150;8.756;2024-03-02T22:53:58;10.20;99.90
17172;DHT22;8701;50.150;8.756;2024-03-02T22:58:00;10.10;99.90
17172;DHT22;8701;50.150;8.756;2024-03-02T23:02:03;9.90;99.90
17172;DHT22;8701;50.150;8.756;2024-03-02T23:06:06;9.90;99.90
17172;DHT22;8701;50.150;8.756;2024-03-02T23:10:10;9.90;99.90
17172;DHT22;8701;50.150;8.756;2024-03-02T23:14:13;9.80;99.90
17172;DHT22;8701;50.150;8.756;2024-03-02T23:18:15;9.80;99.90
17172;DHT22;8701;50.150;8.756;2024-03-02T23:22:17;9.70;99.90
17172;DHT22;8701;50.150;8.756;2024-03-02T23:26:20;9.70;99.90
17172;DHT22;8701;50.150;8.756;2024-03-02T23:30:23;9.60;99.90
17172;DHT22;8701;50.150;8.756;2024-03-02T23:34:27;9.50;99.90
17172;DHT22;8701;50.150;8.756;2024-03-02T23:38:29;9.50;99.90
17172;DHT22;8701;50.150;8.756;2024-03-02T23:42:33;9.50;99.90
17172;DHT22;8701;50.150;8.756;2024-03-02T23:46:37;9.40;99.90
17172;DHT22;8701;50.150;8.756;2024-03-02T23:50:39;9.40;99.90
17172;DHT22;8701;50.150;8.756;2024-03-02T23:54:42;9.30;99.90
17172;DHT22;8701;50.150;8.756;2024-03-02T23:58:46;9.30;99.90
